sensor_id;sensor_type;location;lat;lon;timestamp;temperature;humidity
35591;DHT22;30355;50.556;10.012;2023-12-20T00:08:44;26.90;40.70
35591;DHT22;30355;50.556;10.012;2023-12-20T00:19:20;26.80;40.40
35591;DHT22;30355;50.556;10.012;2023-12-20T00:29:56;26.70;40.20
35591;DHT22;30355;50.556;10.012;2023-12-20T00:40:33;26.60;40.00
35591;DHT22;30355;50.556;10.012;2023-12-20T00:51:08;26.50;39.90
35591;DHT22;30355;50.556;10.012;2023-12-20T01:01:44;26.40;40.30
35591;DHT22;30355;50.556;10.012;2023-12-20T01:12:20;26.30;39.60
35591;DHT22;30355;50.556;10.012;2023-12-20T01:22:57;26.10;39.40
35591;DHT22;30355;50.556;10.012;2023-12-20T01:33:32;26.00;39.30
35591;DHT22;30355;50.556;10.012;2023-12-20T01:44:08;25.90;39.30
35591;DHT22;30355;50.556;10.012;2023-12-20T01:54:44;25.80;39.20
35591;DHT22;30355;50.556;10.012;2023-12-20T02:05:21;25.70;39.20
35591;DHT22;30355;50.556;10.012;2023-12-20T02:15:57;25.50;39.10
35591;DHT22;30355;50.556;10.012;2023-12-20T02:26:34;25.40;39.10
35591;DHT22;30355;50.556;10.012;2023-12-20T02:37:09;25.30;39.00
35591;DHT22;30355;50.556;10.012;2023-12-20T02:47:45;25.20;39.00
35591;DHT22;30355;50.556;10.012;2023-12-20T02:58:21;25.10;39.00
35591;DHT22;30355;50.556;10.012;2023-12-20T03:08:57;25.00;39.00
35591;DHT22;30355;50.556;10.012;2023-12-20T03:19:33;24.90;39.00
35591;DHT22;30355;50.556;10.012;2023-12-20T03:30:10;24.80;39.00
35591;DHT22;30355;50.556;10.012;2023-12-20T03:40:45;24.70;39.00
35591;DHT22;30355;50.556;10.012;2023-12-20T03:51:21;24.60;38.90
35591;DHT22;30355;50.556;10.012;2023-12-20T04:01:50;24.50;38.90
35591;DHT22;30355;50.556;10.012;2023-12-20T04:12:28;24.50;38.90
35591;DHT22;30355;50.556;10.012;2023-12-20T04:23:03;24.40;38.90
35591;DHT22;30355;50.556;10.012;2023-12-20T04:44:15;24.20;38.30
35591;DHT22;30355;50.556;10.012;2023-12-20T04:54:44;24.20;38.90
35591;DHT22;30355;50.556;10.012;2023-12-20T05:05:21;24.10;38.80
35591;DHT22;30355;50.556;10.012;2023-12-20T05:15:56;24.00;38.80
35591;DHT22;30355;50.556;10.012;2023-12-20T05:26:32;23.90;38.80
35591;DHT22;30355;50.556;10.012;2023-12-20T05:37:11;23.90;38.80
35591;DHT22;30355;50.556;10.012;2023-12-20T05:47:47;23.80;38.80
35591;DHT22;30355;50.556;10.012;2023-12-20T05:58:23;23.70;38.70
35591;DHT22;30355;50.556;10.012;2023-12-20T06:08:59;23.70;38.70
35591;DHT22;30355;50.556;10.012;2023-12-20T06:19:28;23.60;38.70
35591;DHT22;30355;50.556;10.012;2023-12-20T06:30:05;23.50;38.80
35591;DHT22;30355;50.556;10.012;2023-12-20T06:40:41;23.50;38.80
35591;DHT22;30355;50.556;10.012;2023-12-20T06:51:17;23.40;38.70
35591;DHT22;30355;50.556;10.012;2023-12-20T07:01:54;23.40;38.80
35591;DHT22;30355;50.556;10.012;2023-12-20T07:12:35;23.30;38.80
35591;DHT22;30355;50.556;10.012;2023-12-20T07:23:11;23.30;38.80
35591;DHT22;30355;50.556;10.012;2023-12-20T07:33:48;23.20;38.40
35591;DHT22;30355;50.556;10.012;2023-12-20T07:44:24;22.90;37.20
35591;DHT22;30355;50.556;10.012;2023-12-20T07:55:00;22.60;37.90
35591;DHT22;30355;50.556;10.012;2023-12-20T08:05:38;22.50;38.40
35591;DHT22;30355;50.556;10.012;2023-12-20T08:16:14;22.50;39.60
35591;DHT22;30355;50.556;10.012;2023-12-20T08:26:50;22.80;39.80
35591;DHT22;30355;50.556;10.012;2023-12-20T08:37:26;23.10;40.30
35591;DHT22;30355;50.556;10.012;2023-12-20T08:48:03;23.60;40.30
35591;DHT22;30355;50.556;10.012;2023-12-20T08:58:38;24.10;40.30
35591;DHT22;30355;50.556;10.012;2023-12-20T09:09:15;24.50;40.70
35591;DHT22;30355;50.556;10.012;2023-12-20T09:19:50;24.90;40.40
35591;DHT22;30355;50.556;10.012;2023-12-20T09:30:27;25.30;40.20
35591;DHT22;30355;50.556;10.012;2023-12-20T09:41:06;25.50;39.70
35591;DHT22;30355;50.556;10.012;2023-12-20T09:51:43;25.70;39.30
35591;DHT22;30355;50.556;10.012;2023-12-20T10:02:24;25.90;39.30
35591;DHT22;30355;50.556;10.012;2023-12-20T10:13:05;25.90;38.90
35591;DHT22;30355;50.556;10.012;2023-12-20T10:23:46;25.60;39.20
35591;DHT22;30355;50.556;10.012;2023-12-20T10:34:21;25.40;39.50
35591;DHT22;30355;50.556;10.012;2023-12-20T10:44:59;25.30;39.50
35591;DHT22;30355;50.556;10.012;2023-12-20T10:55:35;25.20;39.50
35591;DHT22;30355;50.556;10.012;2023-12-20T11:06:20;25.10;39.90
35591;DHT22;30355;50.556;10.012;2023-12-20T11:17:17;25.10;39.30
35591;DHT22;30355;50.556;10.012;2023-12-20T11:28:09;25.10;39.60
35591;DHT22;30355;50.556;10.012;2023-12-20T11:38:56;25.00;39.50
35591;DHT22;30355;50.556;10.012;2023-12-20T11:49:37;24.90;38.80
35591;DHT22;30355;50.556;10.012;2023-12-20T12:00:14;24.80;38.70
35591;DHT22;30355;50.556;10.012;2023-12-20T12:10:51;24.70;38.70
35591;DHT22;30355;50.556;10.012;2023-12-20T12:21:20;24.70;38.70
35591;DHT22;30355;50.556;10.012;2023-12-20T12:31:55;24.50;38.60
35591;DHT22;30355;50.556;10.012;2023-12-20T12:42:31;24.40;38.60
35591;DHT22;30355;50.556;10.012;2023-12-20T12:53:07;24.30;38.60
35591;DHT22;30355;50.556;10.012;2023-12-20T13:03:43;24.20;38.70
35591;DHT22;30355;50.556;10.012;2023-12-20T13:14:19;24.10;38.50
35591;DHT22;30355;50.556;10.012;2023-12-20T13:24:57;24.10;38.70
35591;DHT22;30355;50.556;10.012;2023-12-20T13:35:34;23.90;38.60
35591;DHT22;30355;50.556;10.012;2023-12-20T13:46:11;23.80;38.60
35591;DHT22;30355;50.556;10.012;2023-12-20T13:56:47;23.70;38.70
35591;DHT22;30355;50.556;10.012;2023-12-20T14:07:36;23.60;38.70
35591;DHT22;30355;50.556;10.012;2023-12-20T14:18:13;23.50;38.70
35591;DHT22;30355;50.556;10.012;2023-12-20T14:28:50;23.40;38.80
35591;DHT22;30355;50.556;10.012;2023-12-20T14:39:19;23.30;38.70
35591;DHT22;30355;50.556;10.012;2023-12-20T14:49:54;23.30;38.80
35591;DHT22;30355;50.556;10.012;2023-12-20T15:00:31;23.20;39.10
35591;DHT22;30355;50.556;10.012;2023-12-20T15:11:07;23.10;39.10
35591;DHT22;30355;50.556;10.012;2023-12-20T15:21:43;23.10;39.10
35591;DHT22;30355;50.556;10.012;2023-12-20T15:32:19;23.00;39.10
35591;DHT22;30355;50.556;10.012;2023-12-20T15:42:54;22.90;39.10
35591;DHT22;30355;50.556;10.012;2023-12-20T15:53:31;22.90;39.10
35591;DHT22;30355;50.556;10.012;2023-12-20T16:04:07;22.80;39.10
35591;DHT22;30355;50.556;10.012;2023-12-20T16:14:44;22.70;39.20
35591;DHT22;30355;50.556;10.012;2023-12-20T16:25:20;22.60;39.10
35591;DHT22;30355;50.556;10.012;2023-12-20T16:35:56;22.60;39.20
35591;DHT22;30355;50.556;10.012;2023-12-20T16:46:32;22.50;39.20
35591;DHT22;30355;50.556;10.012;2023-12-20T16:57:08;22.50;39.20
35591;DHT22;30355;50.556;10.012;2023-12-20T17:07:44;22.40;39.20
35591;DHT22;30355;50.556;10.012;2023-12-20T17:18:20;22.40;39.20
35591;DHT22;30355;50.556;10.012;2023-12-20T17:28:49;22.30;39.20
35591;DHT22;30355;50.556;10.012;2023-12-20T17:39:25;22.30;39.30
35591;DHT22;30355;50.556;10.012;2023-12-20T17:50:01;22.20;39.20
35591;DHT22;30355;50.556;10.012;2023-12-20T18:00:37;22.10;39.20
35591;DHT22;30355;50.556;10.012;2023-12-20T18:11:13;22.10;39.30
35591;DHT22;30355;50.556;10.012;2023-12-20T18:21:49;22.00;39.30
35591;DHT22;30355;50.556;10.012;2023-12-20T18:32:26;22.00;39.40
35591;DHT22;30355;50.556;10.012;2023-12-20T18:43:02;21.90;39.40
35591;DHT22;30355;50.556;10.012;2023-12-20T18:53:38;21.90;39.40
35591;DHT22;30355;50.556;10.012;2023-12-20T19:04:15;21.90;39.40
35591;DHT22;30355;50.556;10.012;2023-12-20T19:14:51;21.80;39.40
35591;DHT22;30355;50.556;10.012;2023-12-20T19:25:27;21.80;39.40
35591;DHT22;30355;50.556;10.012;2023-12-20T19:36:03;21.80;39.50
35591;DHT22;30355;50.556;10.012;2023-12-20T19:46:37;21.70;39.40
35591;DHT22;30355;50.556;10.012;2023-12-20T19:57:17;21.70;39.40
35591;DHT22;30355;50.556;10.012;2023-12-20T20:07:53;21.60;39.40
35591;DHT22;30355;50.556;10.012;2023-12-20T20:18:29;21.60;40.00
35591;DHT22;30355;50.556;10.012;2023-12-20T20:29:05;21.50;39.40
35591;DHT22;30355;50.556;10.012;2023-12-20T20:39:42;21.50;39.40
35591;DHT22;30355;50.556;10.012;2023-12-20T20:50:18;21.50;39.50
35591;DHT22;30355;50.556;10.012;2023-12-20T21:00:54;21.40;39.50
35591;DHT22;30355;50.556;10.012;2023-12-20T21:11:30;21.40;39.50
35591;DHT22;30355;50.556;10.012;2023-12-20T21:22:06;21.40;39.50
35591;DHT22;30355;50.556;10.012;2023-12-20T21:32:42;21.40;39.60
35591;DHT22;30355;50.556;10.012;2023-12-20T21:43:18;21.30;39.50
35591;DHT22;30355;50.556;10.012;2023-12-20T21:53:54;21.30;39.60
35591;DHT22;30355;50.556;10.012;2023-12-20T22:04:32;21.20;39.50
35591;DHT22;30355;50.556;10.012;2023-12-20T22:15:08;21.20;39.60
35591;DHT22;30355;50.556;10.012;2023-12-20T22:25:45;21.20;39.60
35591;DHT22;30355;50.556;10.012;2023-12-20T22:36:14;21.10;39.60
35591;DHT22;30355;50.556;10.012;2023-12-20T22:46:50;21.10;39.60
35591;DHT22;30355;50.556;10.012;2023-12-20T22:57:26;21.10;39.60
35591;DHT22;30355;50.556;10.012;2023-12-20T23:08:02;21.10;39.60
35591;DHT22;30355;50.556;10.012;2023-12-20T23:18:32;21.00;39.60
35591;DHT22;30355;50.556;10.012;2023-12-20T23:29:08;21.00;39.60
35591;DHT22;30355;50.556;10.012;2023-12-20T23:39:44;21.00;39.60
35591;DHT22;30355;50.556;10.012;2023-12-20T23:50:20;20.90;39.60
